createdAt,value
2022-10-05T00:04:31.889Z,12.7
2022-10-05T00:09:44.719Z,12.69
2022-10-05T00:14:57.334Z,12.76
2022-10-05T00:20:09.776Z,13.02
2022-10-05T00:25:22.111Z,13.13
2022-10-05T00:30:34.448Z,13.04
2022-10-05T00:35:46.815Z,13.08
2022-10-05T00:40:59.312Z,13.14
2022-10-05T00:46:11.432Z,13.21
2022-10-05T00:51:23.891Z,13.25
2022-10-05T00:56:36.248Z,13.28
2022-10-05T01:01:48.641Z,13.27
2022-10-05T01:07:00.974Z,13.25
2022-10-05T01:12:13.413Z,13.21
2022-10-05T01:17:25.502Z,13.07
2022-10-05T01:22:38.036Z,12.78
2022-10-05T01:27:50.495Z,12.77
2022-10-05T01:33:03.164Z,12.8
2022-10-05T01:38:15.358Z,12.58
2022-10-05T01:43:27.547Z,12.43
2022-10-05T01:48:40.026Z,12.35
2022-10-05T01:53:52.834Z,12.46
2022-10-05T01:59:05.291Z,12.5
2022-10-05T02:04:37.188Z,12.42
2022-10-05T02:09:30.057Z,12.29
2022-10-05T02:14:42.284Z,12.08
2022-10-05T02:19:54.467Z,11.87
2022-10-05T02:25:07.216Z,11.94
2022-10-05T02:30:19.503Z,12.07
2022-10-05T02:35:31.736Z,12.1
2022-10-05T02:40:44.112Z,12.13
2022-10-05T02:45:56.516Z,11.88
2022-10-05T02:51:08.657Z,11.76
2022-10-05T02:56:21.392Z,11.67
2022-10-05T03:01:33.889Z,11.75
2022-10-05T03:06:46.614Z,11.93
2022-10-05T03:11:59.344Z,12.06
2022-10-05T03:17:11.668Z,12
2022-10-05T03:22:24.152Z,12.05
2022-10-05T03:27:36.403Z,12.03
2022-10-05T03:32:48.912Z,12.08
2022-10-05T03:38:01.210Z,12.19
2022-10-05T03:43:13.529Z,12.31
2022-10-05T03:48:25.716Z,12.33
2022-10-05T03:53:38.126Z,12.3
2022-10-05T03:58:50.507Z,12.34
2022-10-05T04:04:02.670Z,12.32
2022-10-05T04:09:15.253Z,12.26
2022-10-05T04:14:27.587Z,12.12
2022-10-05T04:19:39.951Z,12.16
2022-10-05T04:24:52.029Z,12.25
2022-10-05T04:30:04.334Z,12.3
2022-10-05T04:35:16.697Z,12.31
2022-10-05T04:40:29.075Z,12.34
2022-10-05T04:45:41.291Z,12.36
2022-10-05T04:50:53.544Z,12.27
2022-10-05T04:56:05.881Z,12.12
2022-10-05T05:01:18.355Z,12.05
2022-10-05T05:06:30.537Z,12.04
2022-10-05T05:11:42.803Z,12.13
2022-10-05T05:16:55.859Z,12.19
2022-10-05T05:22:08.518Z,12.18
2022-10-05T05:27:20.603Z,12.01
2022-10-05T05:32:33.149Z,12
2022-10-05T05:37:45.674Z,12.1
2022-10-05T05:42:57.884Z,12.22
2022-10-05T05:48:10.278Z,12.24
2022-10-05T05:53:22.760Z,12.21
2022-10-05T05:58:35.161Z,12.2
2022-10-05T06:03:47.602Z,12.23
2022-10-05T06:09:00.038Z,12.3
2022-10-05T06:14:12.320Z,12.37
2022-10-05T06:19:24.876Z,12.43
2022-10-05T06:24:37.214Z,12.47
2022-10-05T06:29:49.512Z,12.54
2022-10-05T06:35:02.015Z,12.6
2022-10-05T06:40:14.871Z,12.69
2022-10-05T06:45:26.995Z,12.76
2022-10-05T06:50:39.397Z,12.79
2022-10-05T06:55:51.677Z,12.79
2022-10-05T07:01:03.911Z,12.86
2022-10-05T07:06:16.082Z,12.68
2022-10-05T07:16:41.005Z,12.9
2022-10-05T07:21:53.344Z,13.05
2022-10-05T07:27:05.671Z,13.1
2022-10-05T07:32:18.127Z,13.21
2022-10-05T07:37:30.562Z,13.31
2022-10-05T07:42:49.086Z,13.43
2022-10-05T07:47:55.587Z,13.5
2022-10-05T07:53:07.919Z,13.56
2022-10-05T07:58:20.246Z,13.69
2022-10-05T08:03:32.665Z,13.83
2022-10-05T08:08:45.119Z,13.93
2022-10-05T08:13:57.338Z,14.11
2022-10-05T08:19:09.725Z,14.3
2022-10-05T08:24:22.070Z,14.4
2022-10-05T08:29:34.500Z,14.48
2022-10-05T08:34:46.890Z,14.62
2022-10-05T08:39:59.216Z,14.75
2022-10-05T08:45:11.737Z,14.94
2022-10-05T08:50:23.990Z,15.06
2022-10-05T08:55:36.318Z,15.23
2022-10-05T09:00:49.067Z,15.34
2022-10-05T09:06:01.269Z,15.4
2022-10-05T09:11:13.713Z,15.51
2022-10-05T09:16:26.081Z,15.65
2022-10-05T09:21:38.781Z,15.83
2022-10-05T09:26:50.994Z,15.92
2022-10-05T09:32:03.282Z,16.04
2022-10-05T09:37:15.827Z,16.16
2022-10-05T09:42:28.349Z,16.25
2022-10-05T09:47:40.698Z,16.36
2022-10-05T09:52:52.982Z,16.51
2022-10-05T09:58:05.355Z,16.72
2022-10-05T10:03:17.844Z,16.86
2022-10-05T10:08:30.074Z,16.96
2022-10-05T10:13:42.487Z,17.06
2022-10-05T10:18:55.158Z,17.21
2022-10-05T10:24:07.639Z,17.3
2022-10-05T10:29:19.791Z,17.43
2022-10-05T10:34:32.235Z,17.59
2022-10-05T10:39:44.604Z,17.69
2022-10-05T10:44:57.032Z,17.76
2022-10-05T10:50:09.591Z,17.91
2022-10-05T10:55:22.412Z,18.21
2022-10-05T11:00:34.699Z,18.25
2022-10-05T11:05:48.655Z,18.47
2022-10-05T11:10:59.533Z,18.95
2022-10-05T11:16:14.548Z,19.53
2022-10-05T11:21:24.663Z,19.93
2022-10-05T11:26:36.854Z,19.9
2022-10-05T11:31:49.349Z,19.92
2022-10-05T11:37:01.652Z,20.2
2022-10-05T11:42:14.053Z,20.16
2022-10-05T11:47:26.114Z,19.84
2022-10-05T11:52:38.317Z,19.64
2022-10-05T11:57:50.798Z,19.61
2022-10-05T12:03:03.344Z,19.72
2022-10-05T12:08:15.770Z,20.06
2022-10-05T12:13:28.180Z,20.56
2022-10-05T12:18:40.616Z,21.01
2022-10-05T12:23:53.361Z,21.55
2022-10-05T12:29:05.736Z,21.94
2022-10-05T12:34:18.303Z,22.3
2022-10-05T12:39:30.915Z,22.84
2022-10-05T12:44:43.313Z,22.96
2022-10-05T12:49:55.625Z,22.61
2022-10-05T12:55:08.089Z,22.99
2022-10-05T13:00:23.071Z,23.33
2022-10-05T13:05:33.104Z,23.83
2022-10-05T13:10:45.702Z,23.98
2022-10-05T13:15:58.112Z,24.01
2022-10-05T13:21:10.271Z,24.08
2022-10-05T13:26:22.849Z,24.36
2022-10-05T13:31:35.211Z,24.53
2022-10-05T13:36:47.371Z,24.15
2022-10-05T13:41:59.852Z,24.14
2022-10-05T13:47:12.435Z,24.63
2022-10-05T13:52:24.670Z,24.27
2022-10-05T13:57:37.077Z,24.34
2022-10-05T14:02:49.387Z,24.46
2022-10-05T14:08:01.959Z,24.81
2022-10-05T14:13:14.530Z,25.17
2022-10-05T14:18:26.778Z,25.15
2022-10-05T14:23:39.138Z,25.26
2022-10-05T14:28:51.340Z,25.52
2022-10-05T14:34:03.632Z,25.66
2022-10-05T14:39:16.041Z,26
2022-10-05T14:44:28.730Z,26.4
2022-10-05T14:49:41.038Z,26.56
2022-10-05T14:54:53.177Z,25.82
2022-10-05T15:00:05.420Z,25.06
2022-10-05T15:05:17.916Z,25.15
2022-10-05T15:10:30.442Z,25.23
2022-10-05T15:15:42.656Z,24.8
2022-10-05T15:20:55.095Z,24.95
2022-10-05T15:26:07.734Z,25.09
2022-10-05T15:31:20.229Z,25.57
2022-10-05T15:36:32.428Z,25.36
2022-10-05T15:41:44.628Z,24.93
2022-10-05T15:46:58.523Z,25.09
2022-10-05T15:52:10.777Z,25.03
2022-10-05T15:57:22.984Z,24.68
2022-10-05T16:02:35.024Z,23.78
2022-10-05T16:07:47.525Z,23.86
2022-10-05T16:12:59.837Z,23.75
2022-10-05T16:18:12.045Z,23.32
2022-10-05T16:23:24.292Z,23.16
2022-10-05T16:28:36.472Z,22.63
2022-10-05T16:33:48.344Z,21.92
2022-10-05T16:39:00.305Z,21.29
2022-10-05T16:44:12.546Z,20.93
2022-10-05T16:49:24.801Z,20.46
2022-10-05T16:54:36.895Z,20.13
2022-10-05T16:59:49.010Z,19.78
2022-10-05T17:05:01.254Z,19.51
2022-10-05T17:10:13.676Z,19.27
2022-10-05T17:15:26.037Z,19.26
2022-10-05T17:20:42.356Z,19.44
2022-10-05T17:25:51.054Z,19.57
2022-10-05T17:31:03.378Z,19.63
2022-10-05T17:36:15.823Z,19.66
2022-10-05T17:41:28.220Z,19.53
2022-10-05T17:46:40.404Z,19.31
2022-10-05T17:51:52.805Z,19.08
2022-10-05T17:57:05.354Z,18.84
2022-10-05T18:02:18.050Z,18.85
2022-10-05T18:07:30.276Z,18.9
2022-10-05T18:12:42.552Z,18.9
2022-10-05T18:17:55.900Z,18.83
2022-10-05T18:23:08.182Z,18.79
2022-10-05T18:28:20.740Z,18.75
2022-10-05T18:33:32.886Z,18.73
2022-10-05T18:38:45.229Z,18.7
2022-10-05T18:43:57.312Z,18.69
2022-10-05T18:49:09.546Z,18.58
2022-10-05T18:54:21.917Z,18.38
2022-10-05T18:59:34.084Z,18.3
2022-10-05T19:04:46.632Z,18.21
2022-10-05T19:09:59.111Z,18.12
2022-10-05T19:15:11.120Z,17.97
2022-10-05T19:20:23.684Z,17.94
2022-10-05T19:25:35.836Z,17.68
2022-10-05T19:30:47.921Z,17.34
2022-10-05T19:36:00.133Z,17.09
2022-10-05T19:41:12.398Z,17
2022-10-05T19:46:24.630Z,16.84
2022-10-05T19:51:36.805Z,16.63
2022-10-05T19:56:49.329Z,16.57
2022-10-05T20:02:01.823Z,16.6
2022-10-05T20:07:13.998Z,16.48
2022-10-05T20:12:26.620Z,16.5
2022-10-05T20:17:39.142Z,16.63
2022-10-05T20:22:51.420Z,16.58
2022-10-05T20:28:03.780Z,16.55
2022-10-05T20:33:16.280Z,16.48
2022-10-05T20:38:28.695Z,16.33
2022-10-05T20:43:40.701Z,16.3
2022-10-05T20:48:53.084Z,16.29
2022-10-05T20:54:05.260Z,16.32
2022-10-05T20:59:17.643Z,16.28
2022-10-05T21:04:32.788Z,16.23
2022-10-05T21:09:42.372Z,16.15
2022-10-05T21:14:54.821Z,16.21
2022-10-05T21:20:07.255Z,16.26
2022-10-05T21:25:19.644Z,16.34
2022-10-05T21:30:32.069Z,16.39
2022-10-05T21:35:44.295Z,16.36
2022-10-05T21:40:56.733Z,16.34
2022-10-05T21:46:09.106Z,16.38
2022-10-05T21:51:21.355Z,16.38
2022-10-05T21:56:33.552Z,16.31
2022-10-05T22:01:45.950Z,16.3
2022-10-05T22:06:58.181Z,16.32
2022-10-05T22:12:10.546Z,16.37
2022-10-05T22:17:22.962Z,16.45
2022-10-05T22:22:35.522Z,16.53
2022-10-05T22:27:47.851Z,16.56
2022-10-05T22:32:59.976Z,16.51
2022-10-05T22:38:12.183Z,16.5
2022-10-05T22:43:24.611Z,16.52
2022-10-05T22:48:37.078Z,16.57
2022-10-05T22:53:49.469Z,16.59
2022-10-05T22:59:01.885Z,16.62
2022-10-05T23:04:14.154Z,16.52
2022-10-05T23:09:26.533Z,16.47
2022-10-05T23:14:39.065Z,16.45
2022-10-05T23:19:51.446Z,16.45
2022-10-05T23:25:04.000Z,16.43
2022-10-05T23:30:16.236Z,16.34
2022-10-05T23:35:28.379Z,16.3
2022-10-05T23:40:40.945Z,16.24
2022-10-05T23:45:53.414Z,16.23
2022-10-05T23:51:05.495Z,16.21
2022-10-05T23:56:17.791Z,16.17
